Terminal Aerodrome Forecast
Issued by NWS Buffalo, NY

Home | Current Version | Previous Version | Text Only | Print | Product List | Glossary On
Versions: 1 2 3 4 5 6 7 8 9 10 11 12 13 14 15 16 17 18 19 20 21 22 23
000
FTUS41 KBUF 260903 AAA
TAFBUF
TAF AMD
KBUF 260903Z 2609/2706 18004KT P6SM FEW110 BKN250
     FM261200 17005KT P6SM BKN060 BKN250
     FM261500 21006KT P6SM VCTS BKN050CB BKN100
     FM261900 24011KT P6SM BKN050 OVC100
     FM270100 17004KT P6SM SCT120=

USA.gov is the U.S. government's official web portal to all federal, state and local government web resources and services.